Pilot Butte, Canada
Current Conditions -  °F | °C
As of 10:00 PM on Saturday 20 Dec 2014 (Local Time) from CYQR Reporting Station
Moderate Fog Moderate Fog  
Wind Chill: 11°   Ceiling: 100
Heat Index: 18°   Visibility: 0.12mi
Dew Point: 18°   Wind: 5mph
Humidity: 100%   Direction: 160°SSE
Pressure: 29.66"   Gusts: NA
Location:  50.48°N, 104.42°W
Report Text: CYQR 210400Z 16004KT 1/8SM R13/1400FT/N FZFG VV001 M08/M08 A2966 RMK FG8 SLP079
Loading
Personal Weather Stations






























Interactive Weather Map New forecast layout! Learn more

10-Day Weather Forecast

Advertisements
Track Severe Weather on mobile